VA94 weather

Public forecast

Using degrees Fahrenheit for public forecast. Weather courtesy of forecast.io.

Closest aviation weather report (METAR) to Plainview Airport

Closest report is Chesterfield County Airport, 19.1 nm (35.4 km) ESE. Retrieved 2020/08/11 17:56 UTC (13 minutes ago):

KFCI 111756Z AUTO 16008KT 140V200 10SM FEW028 30/24 A2998 RMK AO2 SLP159 T03000244 10306 20211 58012

Closest aviation forecast (TAF) to Plainview Airport

Closest forecast is Richmond International Airport, 27.3 nm (50.5 km) E. Retrieved 2020/08/11 18:22 UTC (0 seconds ago):

TAF KRIC 111720Z 1118/1218 20005KT P6SM SCT040 FM112300 17005KT P6SM SCT100 FM120200 VRB03KT P6SM SCT150 FM121400 19005KT P6SM SCT025